Terminal Aerodrome Forecast
Issued by NWS

Home | Current Version | Previous Version | Text Only | Print | Product List | Glossary On
Versions: 1 2 3 4 5 6 7 8 9 10 11 12 13
000
FTUS45 KRIW 262150 AAA
TAFWRL
TAF AMD
KWRL 262150Z 2622/2718 VRB06KT P6SM VCTS SCT050CB BKN080
      TEMPO 2622/2623 VRB20G30KT 4SM -TSRA OVC030CB
     FM262300 12006KT P6SM SCT080
     FM270900 36009KT P6SM VCSH SCT030 OVC050=

USA.gov is the U.S. government's official web portal to all federal, state and local government web resources and services.